PHNLPHMK

Guest
Details From PHNL - Honolulu Intl
To PHMK - Molokai
Flight Number -
Tags Generated
Created
Modified
Stats Distance 47 nm / 87 km
Max Altitude 0 ft / 0 m
Waypoints 2
Social Downloads 0
Likes 0
Share VATSIM

Download

Looking for another format? Having issues loading an existing format? Contact us
Advertisement - Login to hide

Notes

Generated

Route

PHNL PHMK

ID Type Via Altitude Latitude Longitude Leg Dist Tot Dist Heading (true) Name
O PHNL APT - 0 ft / 0 m 21.31833˚ -157.92332˚ - 0 nm - Honolulu Intl
O PHMK APT - 0 ft / 0 m 21.15746˚ -157.09758˚ 47 nm 47 nm 102° / 102° -

Altitude Profile

Advertisement - Login to hide

PHNL

Details ICAO PHNL (HNL)
Name Honolulu Intl
Region USA (Hawaii)
Timezone Pacific/Honolulu (UTC-10.0)
Stats Elevation 13 ft / 4 m (AMSL)
Location 21.319376° -157.921281°
Runways 4
Magnetic Variation 9.483° E

METAR

PHNL 142153Z 02011G21KT 10SM FEW027 SCT042 BKN060 24/12 A3007

Decode

TAF

TAF AMD PHNL 142105Z 1421/1524 03014G22KT P6SM FEW025 SCT050 FM142200 04018G26KT P6SM FEW030 SCT045 FM150600 04014KT P6SM VCSH FEW025 BKN045 FM152000 05016G24KT P6SM FEW025 SCT045

Decode

Departure Runways

ID Width Length Bearing (true) Bearing (mag) Surface Threshold Offset Overrun Length
04L 150 ft / 46 m 6,958 ft / 2,121 m 52.84° 43.36° Asphalt 0 ft / 0 m 215 ft / 66 m
04R 150 ft / 46 m 9,008 ft / 2,746 m 52.86° 43.38° Asphalt 0 ft / 0 m 200 ft / 61 m
08L 150 ft / 46 m 12,285 ft / 3,744 m 90.00° 80.52° Asphalt 0 ft / 0 m 1,000 ft / 305 m
08R 200 ft / 61 m 11,985 ft / 3,653 m 90.00° 80.52° Asphalt 0 ft / 0 m 700 ft / 213 m
22L 150 ft / 46 m 9,008 ft / 2,746 m 232.86° 223.38° Asphalt 0 ft / 0 m 215 ft / 66 m
22R 150 ft / 46 m 6,958 ft / 2,121 m 232.85° 223.37° Asphalt 0 ft / 0 m 0 ft / 0 m
26L 200 ft / 61 m 11,985 ft / 3,653 m 270.01° 260.53° Asphalt 0 ft / 0 m 700 ft / 213 m
26R 150 ft / 46 m 12,285 ft / 3,744 m 270.01° 260.53° Asphalt 0 ft / 0 m 655 ft / 200 m

PHMK

Details ICAO PHMK (MKK)
Name MOLOKAI
Region USA (Hawaii)
Timezone Pacific/Honolulu (UTC-10.0)
Stats Elevation 454 ft / 138 m (AMSL)
Location 21.152926° -157.096500°
Runways 2
Magnetic Variation 9.515° E

METAR

PHMK 142154Z 02013G25KT 10SM FEW028 SCT033 BKN047 21/15 A3008 RMK AO2 SLP190 T02110150

Decode

TAF

PHMK 141720Z 1418/1518 02012G20KT P6SM VCSH FEW025 BKN040 FM142000 03020G28KT P6SM VCSH SCT030 BKN040 FM150500 03015KT P6SM VCSH FEW030 BKN040

Decode

Destination Runways

ID Width Length Bearing (true) Bearing (mag) Surface Threshold Offset Overrun Length
05 100 ft / 30 m 4,503 ft / 1,373 m 60.21° 50.69° Asphalt 0 ft / 0 m 0 ft / 0 m
17 100 ft / 30 m 3,130 ft / 954 m 179.90° 170.38° Asphalt 427 ft / 130 m 0 ft / 0 m
23 100 ft / 30 m 4,503 ft / 1,373 m 240.21° 230.69° Asphalt 0 ft / 0 m 0 ft / 0 m
35 100 ft / 30 m 3,130 ft / 954 m 359.90° 350.38° Asphalt 0 ft / 0 m 0 ft / 0 m

Popular Alternatives